Time;durP1;ratioP1;P1;durP2;ratioP2;P2;SDS_P1;SDS_P2;PMS_P1;PMS_P2;Temp;Humidity;BMP_temperature;BMP_pressure;BME280_temperature;BME280_humidity;BME280_pressure;Samples;Min_cycle;Max_cycle;Signal;HPM_P1;HPM_P2
2024/01/17 00:00:22;;;;;;;44.47;26.20;;;;;;;-0.65;62.23;94900.41;5046713;28;20353;-77
2024/01/17 00:02:47;;;;;;;52.90;27.80;;;;;;;-0.64;62.17;94907.34;5045196;28;20467;-77
2024/01/17 00:05:12;;;;;;;48.83;28.55;;;;;;;-0.61;62.01;94900.47;5045879;28;20021;-77
2024/01/17 00:07:38;;;;;;;58.72;31.13;;;;;;;-0.67;62.24;94905.41;5047828;28;20075;-78
2024/01/17 00:10:04;;;;;;;57.22;30.83;;;;;;;-0.66;62.19;94912.34;5047833;28;20152;-77
2024/01/17 00:12:30;;;;;;;55.80;29.95;;;;;;;-0.59;62.14;94917.06;5047613;28;20029;-77
2024/01/17 00:14:55;;;;;;;46.60;25.95;;;;;;;-0.69;62.47;94912.28;5047855;28;20317;-78
2024/01/17 00:17:21;;;;;;;42.88;26.98;;;;;;;-0.68;62.34;94922.75;5046970;28;20585;-79
2024/01/17 00:19:46;;;;;;;49.33;27.80;;;;;;;-0.68;62.46;94916.56;5048004;28;20060;-77
2024/01/17 00:22:11;;;;;;;50.28;28.10;;;;;;;-0.69;62.43;94909.59;5047063;28;20021;-78
2024/01/17 00:24:38;;;;;;;48.30;28.42;;;;;;;-0.71;62.33;94911.88;5047572;28;20862;-77
2024/01/17 00:27:04;;;;;;;54.22;29.08;;;;;;;-0.71;62.20;94915.38;5047406;28;20664;-77
2024/01/17 00:29:31;;;;;;;49.28;27.10;;;;;;;-0.66;62.14;94911.56;5047052;28;20090;-77
2024/01/17 00:31:56;;;;;;;48.38;26.38;;;;;;;-0.64;62.03;94917.38;5045964;28;20391;-77
2024/01/17 00:34:22;;;;;;;49.22;25.17;;;;;;;-0.69;62.23;94921.19;5046981;28;20068;-77
2024/01/17 00:36:47;;;;;;;44.10;25.08;;;;;;;-0.73;62.23;94909.56;5047461;28;20024;-77
2024/01/17 00:39:13;;;;;;;45.25;25.58;;;;;;;-0.68;62.43;94911.19;5046351;28;20026;-77
2024/01/17 00:41:39;;;;;;;40.63;24.42;;;;;;;-0.68;62.18;94911.19;5047499;28;20104;-77
2024/01/17 00:44:05;;;;;;;44.65;25.52;;;;;;;-0.68;62.34;94921.97;5046292;28;20099;-77
2024/01/17 00:46:31;;;;;;;49.20;28.30;;;;;;;-0.74;62.76;94918.03;5047034;28;20033;-78
2024/01/17 00:48:56;;;;;;;41.95;26.63;;;;;;;-0.64;62.67;94906.59;5046682;28;20037;-77
2024/01/17 00:51:25;;;;;;;44.17;27.48;;;;;;;-0.67;63.06;94907.31;5046674;28;20017;-77
2024/01/17 00:53:51;;;;;;;46.67;25.85;;;;;;;-0.69;63.24;94901.50;5046611;28;20481;-77
2024/01/17 00:56:17;;;;;;;41.70;25.35;;;;;;;-0.70;63.28;94903.41;5046312;28;20056;-77
2024/01/17 00:58:42;;;;;;;43.38;24.50;;;;;;;-0.71;63.16;94901.09;5047354;28;20451;-78
2024/01/17 01:01:08;;;;;;;45.13;26.95;;;;;;;-0.72;63.20;94889.53;5046190;28;20112;-77
2024/01/17 01:03:33;;;;;;;50.08;28.00;;;;;;;-0.71;63.15;94901.88;5047006;28;20029;-77
2024/01/17 01:05:58;;;;;;;53.58;29.70;;;;;;;-0.68;63.31;94892.28;5046622;28;20459;-78
2024/01/17 01:08:24;;;;;;;52.85;29.40;;;;;;;-0.71;63.31;94893.00;5046608;28;20066;-78
2024/01/17 01:10:49;;;;;;;59.88;30.67;;;;;;;-0.70;63.05;94891.84;5044590;28;20514;-78
2024/01/17 01:13:14;;;;;;;50.80;26.73;;;;;;;-0.77;63.07;94887.13;5046096;28;20104;-78
2024/01/17 01:15:40;;;;;;;46.78;25.35;;;;;;;-0.74;62.97;94894.50;5046003;28;20061;-78
2024/01/17 01:18:05;;;;;;;43.55;25.17;;;;;;;-0.71;62.75;94893.00;5045730;28;20033;-77
2024/01/17 01:20:31;;;;;;;40.55;22.48;;;;;;;-0.75;62.67;94887.53;5046983;28;20051;-77
2024/01/17 01:22:56;;;;;;;45.88;23.83;;;;;;;-0.59;62.37;94888.13;5045847;28;20032;-77
2024/01/17 01:25:21;;;;;;;40.03;20.75;;;;;;;-0.52;61.98;94886.66;5046700;28;20100;-77
2024/01/17 01:27:47;;;;;;;36.92;20.33;;;;;;;-0.55;61.97;94885.50;5045653;28;20106;-77
2024/01/17 01:30:12;;;;;;;35.40;19.15;;;;;;;-0.54;61.92;94892.44;5044864;28;20112;-78
2024/01/17 01:32:37;;;;;;;28.25;17.88;;;;;;;-0.55;61.80;94897.06;5046072;28;20112;-77
2024/01/17 01:35:03;;;;;;;31.25;18.27;;;;;;;-0.61;62.23;94898.53;5045771;28;20033;-77
2024/01/17 01:37:29;;;;;;;33.67;18.25;;;;;;;-0.61;62.38;94912.03;5046621;28;20029;-78
2024/01/17 01:39:54;;;;;;;30.13;16.70;;;;;;;-0.61;62.42;94914.75;5045459;28;20059;-78
2024/01/17 01:42:19;;;;;;;33.03;18.05;;;;;;;-0.72;62.71;94903.03;5046758;28;20207;-78
2024/01/17 01:44:45;;;;;;;31.45;18.13;;;;;;;-0.78;63.07;94909.09;5045733;28;20055;-77
2024/01/17 01:47:11;;;;;;;35.17;18.50;;;;;;;-0.76;62.96;94896.00;5045885;28;20017;-76
2024/01/17 01:49:39;;;;;;;32.08;17.98;;;;;;;-0.76;63.07;94896.78;5043940;28;20059;-77
2024/01/17 01:52:06;;;;;;;31.30;16.60;;;;;;;-0.81;63.09;94902.50;5043923;28;20029;-77
2024/01/17 01:54:32;;;;;;;30.73;17.17;;;;;;;-0.69;62.97;94912.28;5044638;28;20021;-78
2024/01/17 01:56:59;;;;;;;33.28;18.67;;;;;;;-0.68;62.69;94903.06;5045169;28;20032;-77
2024/01/17 01:59:24;;;;;;;31.17;17.75;;;;;;;-0.72;62.84;94903.03;5045205;28;20028;-77
2024/01/17 02:01:50;;;;;;;31.45;17.75;;;;;;;-0.64;63.00;94901.19;5043466;28;20466;-79
2024/01/17 02:04:15;;;;;;;32.20;18.25;;;;;;;-0.70;63.18;94906.13;5045855;28;20060;-78
2024/01/17 02:06:42;;;;;;;32.53;19.45;;;;;;;-0.71;63.15;94890.28;5044869;28;20060;-78
2024/01/17 02:09:08;;;;;;;34.47;19.13;;;;;;;-0.76;63.54;94885.22;5043853;28;20087;-78
2024/01/17 02:11:34;;;;;;;29.25;18.63;;;;;;;-0.74;63.52;94891.03;5044280;28;20040;-78
2024/01/17 02:13:59;;;;;;;35.13;20.90;;;;;;;-0.84;63.54;94873.53;5044843;28;20032;-78
2024/01/17 02:16:25;;;;;;;39.42;19.27;;;;;;;-0.75;63.59;94875.97;5045814;28;20117;-78
2024/01/17 02:18:51;;;;;;;30.90;18.88;;;;;;;-0.73;63.50;94882.56;5044693;28;20337;-78
2024/01/17 02:21:16;;;;;;;31.20;19.92;;;;;;;-0.75;63.66;94882.13;5044562;28;20029;-77
2024/01/17 02:23:42;;;;;;;34.75;19.67;;;;;;;-0.75;63.63;94874.03;5044753;28;20453;-78
2024/01/17 02:26:07;;;;;;;31.33;21.67;;;;;;;-0.76;63.51;94875.19;5045231;28;20028;-78
2024/01/17 02:28:33;;;;;;;33.28;20.05;;;;;;;-0.71;63.41;94874.09;5044176;28;20411;-78
2024/01/17 02:30:59;;;;;;;33.28;18.95;;;;;;;-0.84;63.65;94866.22;5044923;28;20079;-78
2024/01/17 02:33:24;;;;;;;38.28;20.67;;;;;;;-0.85;63.82;94864.69;5045845;28;20233;-78
2024/01/17 02:35:50;;;;;;;34.58;19.58;;;;;;;-0.86;64.07;94871.22;5043986;28;20040;-78
2024/01/17 02:38:15;;;;;;;33.70;20.20;;;;;;;-0.94;64.23;94850.66;5045866;28;20107;-78
2024/01/17 02:40:41;;;;;;;35.92;19.88;;;;;;;-0.82;63.77;94866.63;5044209;28;20025;-78
2024/01/17 02:43:06;;;;;;;35.50;21.23;;;;;;;-0.79;63.89;94867.84;5045691;28;20023;-77
2024/01/17 02:45:32;;;;;;;34.90;19.60;;;;;;;-0.75;63.60;94867.88;5043302;28;20425;-78
2024/01/17 02:47:58;;;;;;;33.50;19.27;;;;;;;-0.73;63.48;94871.00;5044873;28;20013;-78
2024/01/17 02:50:23;;;;;;;36.92;20.10;;;;;;;-0.73;63.36;94868.28;5045179;28;20025;-78
2024/01/17 02:52:49;;;;;;;36.25;20.75;;;;;;;-0.71;63.21;94871.41;5044464;28;20104;-79
2024/01/17 02:55:18;;;;;;;33.65;19.20;;;;;;;-0.67;63.35;94878.41;5045904;28;20032;-78
2024/01/17 02:57:44;;;;;;;29.00;18.60;;;;;;;-0.70;63.37;94872.94;5044306;28;20108;-78
2024/01/17 03:00:10;;;;;;;28.98;18.30;;;;;;;-0.66;63.28;94866.44;5045199;28;20518;-77
2024/01/17 03:02:35;;;;;;;28.95;18.75;;;;;;;-0.60;63.12;94865.00;5043971;28;20029;-78
2024/01/17 03:05:03;;;;;;;28.67;17.50;;;;;;;-0.56;63.22;94875.84;5044745;28;20041;-77
2024/01/17 03:07:28;;;;;;;28.63;18.73;;;;;;;-0.57;63.31;94869.66;5044556;28;20033;-77
2024/01/17 03:09:54;;;;;;;31.40;18.63;;;;;;;-0.58;63.31;94864.63;5044361;28;20036;-77
2024/01/17 03:12:20;;;;;;;33.55;18.27;;;;;;;-0.47;63.10;94873.63;5043751;28;20069;-77
2024/01/17 03:14:45;;;;;;;35.38;18.95;;;;;;;-0.55;63.37;94872.00;5043806;28;20029;-77
2024/01/17 03:17:12;;;;;;;27.98;18.45;;;;;;;-0.52;63.16;94873.94;5043785;28;20045;-77
2024/01/17 03:19:38;;;;;;;30.63;18.08;;;;;;;-0.51;63.20;94880.94;5043911;28;20035;-77
2024/01/17 03:22:03;;;;;;;29.63;19.17;;;;;;;-0.52;63.33;94882.03;5045463;28;20405;-77
2024/01/17 03:24:29;;;;;;;27.58;17.25;;;;;;;-0.50;63.29;94877.06;5044269;28;20158;-78
2024/01/17 03:26:54;;;;;;;31.42;18.65;;;;;;;-0.50;63.37;94860.88;5044128;28;20040;-77
2024/01/17 03:29:19;;;;;;;30.08;18.85;;;;;;;-0.48;63.42;94869.38;5044397;28;20402;-77
2024/01/17 03:31:46;;;;;;;30.75;17.65;;;;;;;-0.45;63.34;94867.88;5043503;28;20029;-78
2024/01/17 03:34:12;;;;;;;35.97;20.15;;;;;;;-0.32;63.09;94853.75;5045117;28;20029;-77
2024/01/17 03:36:37;;;;;;;34.97;20.00;;;;;;;-0.42;63.28;94853.63;5043743;28;20376;-77
2024/01/17 03:39:02;;;;;;;36.85;21.67;;;;;;;-0.39;63.22;94869.88;5045040;28;20039;-77
2024/01/17 03:41:28;;;;;;;41.38;24.25;;;;;;;-0.36;63.29;94847.53;5047677;28;20060;-77
2024/01/17 03:43:53;;;;;;;44.10;24.50;;;;;;;-0.32;63.12;94850.28;5048048;28;20041;-77
2024/01/17 03:46:19;;;;;;;47.53;24.75;;;;;;;-0.40;63.31;94859.41;5048097;28;20452;-77
2024/01/17 03:48:44;;;;;;;46.22;23.77;;;;;;;-0.41;63.02;94866.75;5047636;28;20033;-77
2024/01/17 03:51:09;;;;;;;44.72;22.95;;;;;;;-0.43;62.88;94881.78;5048222;28;20503;-78
2024/01/17 03:53:35;;;;;;;38.33;21.90;;;;;;;-0.46;62.86;94883.31;5047428;28;20040;-78
2024/01/17 03:56:00;;;;;;;35.42;20.08;;;;;;;-0.50;62.21;94885.19;5048359;28;20065;-77
2024/01/17 03:58:25;;;;;;;30.80;19.25;;;;;;;-0.59;62.70;94901.66;5047597;28;20021;-77
2024/01/17 04:00:51;;;;;;;34.70;18.48;;;;;;;-0.62;62.52;94893.50;5048267;28;20424;-77
2024/01/17 04:03:17;;;;;;;32.33;19.70;;;;;;;-0.65;62.65;94888.84;5047694;28;20037;-77
2024/01/17 04:05:43;;;;;;;32.63;19.65;;;;;;;-0.70;62.77;94892.63;5047599;28;20107;-78
2024/01/17 04:08:08;;;;;;;32.33;18.98;;;;;;;-0.66;62.85;94889.97;5047961;28;20060;-78
2024/01/17 04:10:34;;;;;;;35.63;19.10;;;;;;;-0.72;63.08;94897.63;5047079;28;20100;-76
2024/01/17 04:13:00;;;;;;;31.63;17.85;;;;;;;-0.67;62.94;94885.72;5048323;28;20027;-77
2024/01/17 04:15:26;;;;;;;30.95;17.27;;;;;;;-0.70;63.28;94895.31;5047023;28;20036;-78
2024/01/17 04:17:51;;;;;;;27.63;17.80;;;;;;;-0.73;63.36;94887.97;5047646;28;20041;-77
2024/01/17 04:20:16;;;;;;;30.90;18.10;;;;;;;-0.83;63.54;94891.28;5047255;28;20037;-77
2024/01/17 04:22:42;;;;;;;31.90;18.15;;;;;;;-0.81;63.47;94892.47;5047422;28;20032;-77
2024/01/17 04:25:07;;;;;;;31.00;17.15;;;;;;;-0.72;63.13;94888.75;5047348;28;20025;-77
2024/01/17 04:27:33;;;;;;;29.45;18.73;;;;;;;-0.76;63.35;94882.50;5047450;28;20033;-78
2024/01/17 04:29:58;;;;;;;30.00;18.02;;;;;;;-0.84;63.31;94895.91;5047450;28;20029;-78
2024/01/17 04:32:25;;;;;;;36.35;19.17;;;;;;;-0.80;63.22;94893.28;5046718;28;20033;-78
2024/01/17 04:34:50;;;;;;;30.48;19.33;;;;;;;-0.86;63.16;94890.13;5047594;28;20032;-78
2024/01/17 04:37:16;;;;;;;32.85;18.95;;;;;;;-0.88;63.34;94891.59;5046631;28;20124;-78
2024/01/17 04:39:41;;;;;;;40.28;19.48;;;;;;;-0.90;63.42;94893.91;5047721;28;20086;-78
2024/01/17 04:42:07;;;;;;;30.35;17.80;;;;;;;-0.96;63.35;94888.03;5046713;28;20052;-78
2024/01/17 04:44:32;;;;;;;31.15;18.13;;;;;;;-0.92;63.61;94888.06;5047151;28;20063;-79
2024/01/17 04:46:58;;;;;;;32.05;18.98;;;;;;;-0.99;63.68;94886.06;5046848;28;20133;-78
2024/01/17 04:49:26;;;;;;;30.63;18.27;;;;;;;-0.98;64.13;94886.81;5046694;28;20056;-79
2024/01/17 04:51:52;;;;;;;29.20;17.50;;;;;;;-0.96;63.68;94900.75;5047542;28;20066;-79
2024/01/17 04:54:18;;;;;;;29.15;18.95;;;;;;;-0.96;63.82;94898.84;5045498;28;20017;-78
2024/01/17 04:56:43;;;;;;;29.80;17.30;;;;;;;-1.00;63.65;94902.63;5047974;28;20502;-78
2024/01/17 04:59:09;;;;;;;31.17;19.38;;;;;;;-1.07;63.93;94920.25;5055069;28;20032;-78
2024/01/17 05:01:35;;;;;;;35.45;19.23;;;;;;;-1.02;64.05;94932.66;5041281;28;20576;-78
2024/01/17 05:04:00;;;;;;;30.13;20.27;;;;;;;-0.99;63.90;94933.84;5058169;28;20027;-77
2024/01/17 05:06:26;;;;;;;36.67;20.42;;;;;;;-1.00;63.95;94926.91;5058140;28;20096;-78
2024/01/17 05:08:51;;;;;;;36.55;20.50;;;;;;;-0.98;64.31;94927.31;5052812;28;20025;-78
2024/01/17 05:11:21;;;;;;;33.60;20.55;;;;;;;-0.87;64.08;94923.63;5047559;28;20079;-77
2024/01/17 05:13:47;;;;;;;29.50;20.17;;;;;;;-0.93;64.38;94908.88;5048442;28;20029;-78
2024/01/17 05:16:12;;;;;;;32.42;19.00;;;;;;;-0.85;63.96;94926.75;5046475;28;20064;-78
2024/01/17 05:18:39;;;;;;;35.65;19.42;;;;;;;-1.03;64.28;94914.13;5046931;28;20044;-78
2024/01/17 05:21:04;;;;;;;37.10;18.88;;;;;;;-0.96;64.50;94927.75;5045912;28;20431;-79
2024/01/17 05:23:29;;;;;;;33.53;19.45;;;;;;;-0.98;64.57;94919.22;5046333;28;20036;-78
2024/01/17 05:25:55;;;;;;;33.28;21.65;;;;;;;-1.03;65.08;94923.03;5045836;28;20036;-78
2024/01/17 05:28:20;;;;;;;33.50;19.50;;;;;;;-0.95;64.86;94921.97;5045795;28;20035;-78
2024/01/17 05:30:45;;;;;;;35.33;21.33;;;;;;;-0.97;65.14;94908.06;5046226;28;20056;-79
2024/01/17 05:33:11;;;;;;;32.63;20.15;;;;;;;-0.93;65.16;94908.09;5045965;28;20025;-78
2024/01/17 05:35:36;;;;;;;35.47;20.33;;;;;;;-0.88;65.22;94902.41;5046820;28;20480;-78
2024/01/17 05:38:02;;;;;;;33.78;19.90;;;;;;;-0.85;65.38;94898.97;5045569;28;20108;-78
2024/01/17 05:40:27;;;;;;;37.67;20.67;;;;;;;-0.89;65.40;94895.44;5046868;28;20058;-77
2024/01/17 05:42:53;;;;;;;32.28;19.98;;;;;;;-0.74;65.21;94921.50;5046003;28;20023;-79
2024/01/17 05:45:18;;;;;;;38.33;22.35;;;;;;;-0.71;64.94;94918.06;5045897;28;20017;-80
2024/01/17 05:47:43;;;;;;;37.90;22.40;;;;;;;-0.66;64.95;94933.19;5045991;28;20543;-80
2024/01/17 05:50:09;;;;;;;43.70;24.38;;;;;;;-0.61;64.99;94922.84;5045391;28;20040;-79
2024/01/17 05:52:37;;;;;;;34.88;22.65;;;;;;;-0.57;64.88;94917.50;5046459;28;20033;-80
2024/01/17 05:55:03;;;;;;;33.75;22.25;;;;;;;-0.53;64.76;94923.69;5044971;28;20029;-78
2024/01/17 05:57:29;;;;;;;39.20;21.27;;;;;;;-0.55;64.86;94920.59;5046890;28;20044;-79
2024/01/17 05:59:54;;;;;;;36.13;22.08;;;;;;;-0.46;64.62;94923.00;5044001;28;20457;-79
2024/01/17 06:02:23;;;;;;;38.63;22.02;;;;;;;-0.40;64.82;94927.75;5045248;28;20032;-79
2024/01/17 06:04:48;;;;;;;35.47;21.13;;;;;;;-0.37;64.91;94901.91;5045821;28;20077;-79
2024/01/17 06:07:14;;;;;;;40.05;24.08;;;;;;;-0.34;64.80;94899.28;5045368;28;20036;-79
2024/01/17 06:09:39;;;;;;;44.67;26.25;;;;;;;-0.30;65.00;94905.47;5045994;28;20083;-79
2024/01/17 06:12:05;;;;;;;40.42;23.98;;;;;;;-0.26;64.60;94916.34;5044552;28;20033;-78
2024/01/17 06:14:32;;;;;;;40.35;25.00;;;;;;;-0.24;64.51;94916.75;5045736;28;20033;-78
2024/01/17 06:16:57;;;;;;;39.63;24.38;;;;;;;-0.24;64.34;94924.06;5043496;28;20045;-78
2024/01/17 06:19:22;;;;;;;39.28;24.65;;;;;;;-0.20;64.29;94928.38;5045538;28;20087;-79
2024/01/17 06:21:48;;;;;;;33.78;23.00;;;;;;;-0.17;64.00;94922.25;5044953;28;20033;-78
2024/01/17 06:24:13;;;;;;;41.78;25.40;;;;;;;-0.11;63.97;94899.16;5045033;28;20108;-78
2024/01/17 06:26:40;;;;;;;42.80;27.45;;;;;;;-0.11;64.09;94912.66;5045635;28;20078;-79
2024/01/17 06:29:05;;;;;;;45.20;26.77;;;;;;;-0.12;64.32;94935.41;5044824;28;20025;-78
2024/01/17 06:31:31;;;;;;;49.42;28.92;;;;;;;-0.12;64.25;94935.41;5045652;28;20528;-78
2024/01/17 06:33:56;;;;;;;47.10;28.52;;;;;;;-0.13;64.29;94936.56;5044168;28;20419;-78
2024/01/17 06:36:22;;;;;;;52.22;28.50;;;;;;;-0.12;64.32;94937.34;5045936;28;20039;-79
2024/01/17 06:38:48;;;;;;;47.13;28.77;;;;;;;-0.01;63.99;94940.94;5044519;28;20642;-77
2024/01/17 06:41:13;;;;;;;55.42;30.33;;;;;;;0.01;63.89;94933.25;5045234;28;20025;-80
2024/01/17 06:43:39;;;;;;;62.97;35.58;;;;;;;0.05;63.81;94927.88;5045033;28;20044;-77
2024/01/17 06:46:04;;;;;;;60.80;35.10;;;;;;;0.02;63.95;94940.22;5044437;28;20381;-78
2024/01/17 06:48:31;;;;;;;55.70;33.22;;;;;;;0.12;63.75;94934.16;5045510;28;20039;-78
2024/01/17 06:50:57;;;;;;;50.42;30.77;;;;;;;0.29;63.27;94940.09;5044232;28;20376;-78
2024/01/17 06:53:22;;;;;;;50.95;31.20;;;;;;;0.26;63.25;94930.81;5045563;28;20033;-78
2024/01/17 06:55:50;;;;;;;44.53;31.23;;;;;;;0.34;63.21;94923.53;5044197;28;20025;-78
2024/01/17 06:58:16;;;;;;;54.90;34.78;;;;;;;0.31;63.55;94921.59;5045116;28;20167;-78
2024/01/17 07:00:43;;;;;;;59.28;37.15;;;;;;;0.37;63.38;94926.28;5044753;28;20033;-78
2024/01/17 07:03:08;;;;;;;57.90;35.47;;;;;;;0.43;63.08;94930.22;5044631;28;20115;-78
2024/01/17 07:05:34;;;;;;;53.17;33.92;;;;;;;0.57;62.43;94923.38;5044868;28;20083;-78
2024/01/17 07:07:59;;;;;;;53.35;33.30;;;;;;;0.60;62.29;94911.81;5044260;28;20025;-78
2024/01/17 07:10:24;;;;;;;52.47;31.63;;;;;;;0.58;62.28;94901.38;5045573;28;20465;-78
2024/01/17 07:12:52;;;;;;;59.70;31.33;;;;;;;0.71;62.33;94907.28;5043898;28;20136;-78
2024/01/17 07:15:18;;;;;;;61.40;34.60;;;;;;;0.85;62.11;94909.31;5047196;28;20041;-78
2024/01/17 07:17:43;;;;;;;59.75;34.58;;;;;;;0.99;61.51;94925.69;5048537;28;20495;-78
2024/01/17 07:20:10;;;;;;;55.58;32.65;;;;;;;1.08;61.04;94939.66;5048660;28;20036;-77
2024/01/17 07:22:41;;;;;;;48.03;27.83;;;;;;;1.18;60.25;94949.78;5048657;28;20449;-79
2024/01/17 07:25:12;;;;;;;41.10;25.98;;;;;;;1.36;59.79;94938.31;5048833;28;20048;-81
2024/01/17 07:27:43;;;;;;;46.03;28.63;;;;;;;1.43;59.91;94943.75;5050610;28;20036;-85
2024/01/17 07:30:11;;;;;;;40.33;25.85;;;;;;;1.57;59.67;94943.88;5048392;28;20449;-86
2024/01/17 07:32:36;;;;;;;42.50;27.00;;;;;;;1.56;59.64;94943.09;5048123;28;20029;-85
2024/01/17 07:35:03;;;;;;;44.92;26.38;;;;;;;1.68;59.83;94944.69;5047991;28;20343;-79
2024/01/17 07:37:29;;;;;;;45.28;27.55;;;;;;;1.87;59.36;94949.03;5048542;28;20522;-77
2024/01/17 07:39:54;;;;;;;50.10;27.52;;;;;;;1.96;58.97;94935.16;5048735;28;20545;-83
2024/01/17 07:42:21;;;;;;;43.55;26.98;;;;;;;2.00;58.92;94950.25;5048260;28;20029;-79
2024/01/17 07:44:47;;;;;;;43.85;25.00;;;;;;;1.96;58.71;94944.06;5048704;28;20029;-79
2024/01/17 07:47:12;;;;;;;47.50;25.80;;;;;;;1.99;58.73;94948.72;5047657;28;20032;-80
2024/01/17 07:49:38;;;;;;;44.15;26.80;;;;;;;2.07;58.48;94944.88;5048710;28;20039;-82
2024/01/17 07:52:07;;;;;;;39.70;23.88;;;;;;;2.09;58.29;94920.88;5047417;28;20040;-79
2024/01/17 07:54:32;;;;;;;40.17;25.17;;;;;;;2.09;58.40;94920.09;5048218;28;20396;-81
2024/01/17 07:56:58;;;;;;;43.17;24.42;;;;;;;2.06;58.11;94928.97;5047622;28;20032;-80
2024/01/17 07:59:24;;;;;;;35.50;21.92;;;;;;;2.10;57.78;94927.84;5046242;28;20119;-79
2024/01/17 08:01:49;;;;;;;32.10;22.33;;;;;;;2.10;57.87;94929.78;5048327;28;20637;-79
2024/01/17 08:04:16;;;;;;;37.53;22.55;;;;;;;2.09;58.25;94917.38;5047386;28;20037;-79
2024/01/17 08:06:43;;;;;;;41.65;23.73;;;;;;;2.15;58.28;94932.13;5048262;28;20538;-78
2024/01/17 08:09:20;;;;;;;35.55;22.17;;;;;;;2.13;58.03;94940.63;5047043;28;20166;-79
2024/01/17 08:11:47;;;;;;;38.95;23.15;;;;;;;2.21;58.08;94932.53;5048154;28;20037;-79
2024/01/17 08:14:13;;;;;;;32.80;22.27;;;;;;;2.15;58.51;94918.56;5047833;28;20560;-79
2024/01/17 08:16:38;;;;;;;36.28;21.48;;;;;;;2.20;58.14;94939.13;5047140;28;20507;-79
2024/01/17 08:19:05;;;;;;;32.17;19.25;;;;;;;2.25;58.05;94958.50;5047612;28;20537;-79
2024/01/17 08:21:31;;;;;;;36.33;20.08;;;;;;;2.31;57.77;94956.97;5047328;28;20032;-80
2024/01/17 08:23:56;;;;;;;32.50;20.17;;;;;;;2.33;57.61;94946.50;5047857;28;20029;-80
2024/01/17 08:26:22;;;;;;;28.73;18.65;;;;;;;2.39;57.42;94930.63;5047045;28;20487;-80
2024/01/17 08:28:47;;;;;;;30.38;18.75;;;;;;;2.35;57.48;94921.69;5047806;28;20081;-80
2024/01/17 08:31:13;;;;;;;30.33;18.85;;;;;;;2.34;57.45;94933.72;5047005;28;20120;-80
2024/01/17 08:33:39;;;;;;;29.63;19.33;;;;;;;2.37;57.38;94938.38;5047162;28;20025;-79
2024/01/17 08:36:07;;;;;;;29.02;19.98;;;;;;;2.39;57.33;94965.91;5047220;28;20178;-80
2024/01/17 08:38:32;;;;;;;31.45;20.42;;;;;;;2.46;57.24;94978.72;5046756;28;20025;-80
2024/01/17 08:40:57;;;;;;;36.95;23.67;;;;;;;2.40;57.50;94960.09;5047753;28;20395;-80
2024/01/17 08:43:23;;;;;;;33.38;22.02;;;;;;;2.49;57.57;94956.25;5046816;28;20097;-79
2024/01/17 08:45:48;;;;;;;35.38;22.58;;;;;;;2.46;57.76;94955.06;5047698;28;20063;-81
2024/01/17 08:48:14;;;;;;;33.38;21.98;;;;;;;2.50;57.49;94957.78;5046683;28;20021;-80
2024/01/17 08:50:39;;;;;;;39.78;23.58;;;;;;;2.56;57.25;94956.25;5047408;28;20075;-79
2024/01/17 08:53:05;;;;;;;39.53;23.33;;;;;;;2.48;57.67;94950.03;5047263;28;20570;-81
2024/01/17 08:55:31;;;;;;;34.85;20.38;;;;;;;2.48;57.72;94947.34;5046473;28;20037;-78
2024/01/17 08:57:57;;;;;;;34.10;21.27;;;;;;;2.48;57.75;94935.69;5047145;28;20127;-80
2024/01/17 09:00:22;;;;;;;32.20;18.98;;;;;;;2.58;57.31;94962.06;5046293;28;20025;-79
2024/01/17 09:02:48;;;;;;;27.85;19.13;;;;;;;2.60;57.33;94963.25;5047153;28;20033;-79
2024/01/17 09:05:13;;;;;;;33.55;19.20;;;;;;;2.65;57.19;94956.66;5046267;28;20025;-79
2024/01/17 09:07:42;;;;;;;29.55;18.58;;;;;;;2.69;56.74;94943.09;5047349;28;20047;-79
2024/01/17 09:10:09;;;;;;;27.35;17.17;;;;;;;2.73;56.61;94914.78;5046306;28;20025;-81
2024/01/17 09:12:34;;;;;;;27.63;17.85;;;;;;;2.59;56.49;94909.34;5046376;28;20029;-80
2024/01/17 09:14:59;;;;;;;28.35;18.17;;;;;;;2.65;56.49;94905.09;5046271;28;20118;-79
2024/01/17 09:17:25;;;;;;;27.90;18.85;;;;;;;2.65;56.77;94938.44;5045831;28;20423;-79
2024/01/17 09:19:50;;;;;;;29.02;19.48;;;;;;;2.74;57.01;94935.34;5046972;28;20028;-79
2024/01/17 09:22:16;;;;;;;25.70;17.77;;;;;;;2.81;56.79;94929.13;5044329;28;20033;-78
2024/01/17 09:24:41;;;;;;;29.40;17.38;;;;;;;2.73;57.05;94911.31;5047166;28;20082;-79
2024/01/17 09:27:07;;;;;;;25.17;17.35;;;;;;;2.86;56.58;94874.44;5045902;28;20091;-78
2024/01/17 09:29:33;;;;;;;29.48;17.95;;;;;;;2.83;56.73;94900.44;5046729;28;20033;-80
2024/01/17 09:32:00;;;;;;;33.30;19.58;;;;;;;2.88;56.57;94900.06;5046273;28;20029;-79
2024/01/17 09:34:29;;;;;;;33.60;20.88;;;;;;;2.97;56.14;94905.09;5045859;28;20028;-79
2024/01/17 09:36:55;;;;;;;37.75;22.13;;;;;;;3.00;56.10;94898.91;5045522;28;20100;-79
2024/01/17 09:39:20;;;;;;;33.40;19.98;;;;;;;2.97;55.84;94894.22;5045220;28;20531;-79
2024/01/17 09:41:46;;;;;;;31.33;19.00;;;;;;;3.08;55.43;94886.84;5046371;28;20029;-79
2024/01/17 09:44:12;;;;;;;28.88;18.23;;;;;;;3.16;54.60;94895.78;5043908;28;20025;-80
2024/01/17 09:46:39;;;;;;;26.95;18.55;;;;;;;3.16;54.73;94893.84;5046456;28;20116;-80
2024/01/17 09:49:05;;;;;;;30.55;18.77;;;;;;;3.19;54.66;94879.47;5045838;28;20035;-80
2024/01/17 09:51:32;;;;;;;29.13;19.33;;;;;;;3.25;54.51;94881.78;5044358;28;20029;-79
2024/01/17 09:53:59;;;;;;;32.70;20.20;;;;;;;3.26;54.40;94886.84;5045760;28;20063;-79
2024/01/17 09:56:26;;;;;;;32.88;20.55;;;;;;;3.26;54.45;94884.13;5045364;28;20567;-79
2024/01/17 09:58:52;;;;;;;28.10;19.40;;;;;;;3.32;54.25;94868.19;5044950;28;20049;-80
2024/01/17 10:01:19;;;;;;;30.27;20.08;;;;;;;3.38;53.74;94866.63;5043798;28;20040;-80
2024/01/17 10:03:46;;;;;;;31.35;19.67;;;;;;;3.37;53.43;94865.84;5046120;28;20029;-80
2024/01/17 10:06:14;;;;;;;32.15;19.58;;;;;;;3.41;53.61;94868.56;5045165;28;20036;-79
2024/01/17 10:08:40;;;;;;;29.70;19.98;;;;;;;3.43;53.44;94863.50;5045518;28;20583;-80
2024/01/17 10:11:06;;;;;;;29.25;19.38;;;;;;;3.54;52.86;94879.78;5044160;28;20025;-81
2024/01/17 10:13:31;;;;;;;28.17;19.00;;;;;;;3.48;52.92;94868.53;5044936;28;20132;-79
2024/01/17 10:15:59;;;;;;;33.55;21.02;;;;;;;3.53;53.11;94870.09;5045452;28;20021;-80
2024/01/17 10:18:25;;;;;;;31.05;20.77;;;;;;;3.60;53.03;94854.53;5044832;28;20031;-80
2024/01/17 10:20:50;;;;;;;32.72;20.95;;;;;;;3.77;53.20;94852.91;5053893;28;20021;-80
2024/01/17 10:23:15;;;;;;;40.60;23.08;;;;;;;3.94;52.77;94854.78;5058996;28;20478;-79
2024/01/17 10:25:42;;;;;;;33.63;22.83;;;;;;;4.10;52.23;94850.81;5056088;28;20052;-80
2024/01/17 10:28:08;;;;;;;41.42;21.70;;;;;;;4.39;51.48;94848.72;5057663;28;20045;-80
2024/01/17 10:30:36;;;;;;;40.75;22.20;;;;;;;4.59;51.06;94840.78;5063210;28;20021;-81
2024/01/17 10:33:02;;;;;;;37.63;21.98;;;;;;;5.53;48.97;94823.19;5049617;28;20029;-80
2024/01/17 10:35:28;;;;;;;34.40;20.90;;;;;;;6.16;47.80;94826.34;5047129;28;20036;-79
2024/01/17 10:37:54;;;;;;;34.17;20.30;;;;;;;6.43;46.91;94815.44;5048854;28;20479;-80
2024/01/17 10:40:20;;;;;;;30.98;20.20;;;;;;;6.99;45.21;94814.91;5045202;28;20517;-79
2024/01/17 10:42:45;;;;;;;29.38;18.17;;;;;;;7.38;43.88;94816.97;5045391;28;20029;-80
2024/01/17 10:45:21;;;;;;;29.48;19.05;;;;;;;8.34;41.63;94811.53;5045192;28;20032;-80
2024/01/17 10:47:46;;;;;;;25.23;16.45;;;;;;;8.41;41.21;94803.16;5044773;28;20021;-80
2024/01/17 10:50:12;;;;;;;25.58;17.90;;;;;;;8.97;40.06;94795.56;5044804;28;20128;-80
2024/01/17 10:52:41;;;;;;;29.38;18.25;;;;;;;9.12;39.52;94784.22;5044234;28;20058;-79
2024/01/17 10:55:08;;;;;;;30.13;18.33;;;;;;;9.09;39.62;94776.88;5045078;28;20148;-80
2024/01/17 10:57:36;;;;;;;26.38;17.63;;;;;;;9.09;39.46;94780.41;5044471;28;20427;-79
2024/01/17 11:00:11;;;;;;;28.60;17.40;;;;;;;8.90;39.65;94781.28;5043532;28;20049;-79
2024/01/17 11:02:36;;;;;;;23.38;17.25;;;;;;;9.02;39.62;94758.66;5044887;28;20035;-79
2024/01/17 11:05:06;;;;;;;24.48;17.80;;;;;;;9.15;39.46;94745.00;5043023;28;20025;-79
2024/01/17 11:07:32;;;;;;;28.23;18.05;;;;;;;9.44;39.14;94740.28;5045238;28;20144;-80
2024/01/17 11:09:59;;;;;;;26.73;18.17;;;;;;;9.68;39.00;94740.00;5043947;28;20028;-80
2024/01/17 11:12:25;;;;;;;28.92;19.40;;;;;;;10.05;38.58;94744.81;5044901;28;20492;-79